Time,TemperatureF,DewpointF,PressureIn,WindDirection,WindDirectionDegrees,WindSpeedMPH,WindSpeedGustMPH,Humidity,HourlyPrecipIn,Conditions,Clouds,dailyrainin,SolarRadiationWatts/m^2,SoftwareType,DateUTC
2013-02-09 00:00:00,20.2,15.0,30.36,WNW,289,2.4,4.6,80,0.00,BKN,,0.00,0.0,WeatherDisplay:10.37,2013-02-09 05:00:00,
2013-02-09 00:01:00,20.2,15.0,30.36,WNW,289,2.4,3.5,80,0.00,BKN,,0.00,0.0,WeatherDisplay:10.37,2013-02-09 05:01:00,
2013-02-09 00:06:00,20.2,15.0,30.37,WNW,289,2.7,3.5,80,0.00,BKN,,0.00,0.0,WeatherDisplay:10.37,2013-02-09 05:06:00,
2013-02-09 00:11:00,20.0,15.1,30.37,WNW,289,3.7,8.1,81,0.00,BKN,,0.00,0.0,WeatherDisplay:10.37,2013-02-09 05:11:00,
2013-02-09 00:16:00,20.0,15.1,30.37,WNW,289,1.9,3.5,81,0.00,BKN,,0.00,0.0,WeatherDisplay:10.37,2013-02-09 05:16:00,
2013-02-09 00:21:00,20.0,15.1,30.37,WNW,289,3.1,3.5,81,0.00,BKN,,0.00,0.0,WeatherDisplay:10.37,2013-02-09 05:21:00,
2013-02-09 00:26:00,20.0,15.1,30.37,WNW,289,2.4,3.5,81,0.00,BKN,,0.00,0.0,WeatherDisplay:10.37,2013-02-09 05:26:00,
2013-02-09 00:31:00,19.9,15.0,30.38,WNW,289,3.2,3.5,81,0.00,BKN,,0.00,0.0,WeatherDisplay:10.37,2013-02-09 05:31:00,
2013-02-09 00:36:00,19.7,14.8,30.38,WNW,289,0.8,1.1,81,0.00,BKN,,0.00,0.0,WeatherDisplay:10.37,2013-02-09 05:36:00,
2013-02-09 00:41:00,19.7,14.8,30.38,WNW,289,2.4,3.5,81,0.00,BKN,,0.00,0.0,WeatherDisplay:10.37,2013-02-09 05:41:00,
2013-02-09 00:46:00,19.4,14.5,30.38,WNW,289,3.9,4.6,81,0.00,BKN,,0.00,0.0,WeatherDisplay:10.37,2013-02-09 05:46:00,
2013-02-09 00:51:00,19.2,14.3,30.38,WNW,289,1.9,1.9,81,0.00,BKN,,0.00,0.0,WeatherDisplay:10.37,2013-02-09 05:51:00,
2013-02-09 00:56:00,19.1,14.2,30.38,WNW,289,1.1,1.1,81,0.00,BKN,,0.00,0.0,WeatherDisplay:10.37,2013-02-09 05:56:00,
2013-02-09 01:01:00,18.9,14.0,30.38,WNW,289,0.3,1.5,81,0.00,OVC,,0.00,0.0,WeatherDisplay:10.37,2013-02-09 06:01:00,
2013-02-09 01:06:00,18.8,13.9,30.38,WNW,289,3.1,3.5,81,0.00,OVC,,0.00,0.0,WeatherDisplay:10.37,2013-02-09 06:06:00,
2013-02-09 01:11:00,18.4,13.5,30.38,WNW,289,3.3,3.5,81,0.00,OVC,,0.00,0.0,WeatherDisplay:10.37,2013-02-09 06:11:00,
2013-02-09 01:16:00,18.4,13.8,30.38,WNW,289,3.8,3.8,82,0.00,OVC,,0.00,0.0,WeatherDisplay:10.37,2013-02-09 06:16:00,
2013-02-09 01:21:00,18.1,13.5,30.38,WNW,289,4.6,4.6,82,0.00,OVC,,0.00,0.0,WeatherDisplay:10.37,2013-02-09 06:21:00,
2013-02-09 01:26:00,17.8,13.2,30.38,WNW,289,3.1,4.5,82,0.00,OVC,,0.00,0.0,WeatherDisplay:10.37,2013-02-09 06:26:00,
2013-02-09 01:31:00,17.8,13.5,30.39,WNW,289,2.6,3.5,83,0.00,OVC,,0.00,0.0,WeatherDisplay:10.37,2013-02-09 06:31:00,
2013-02-09 01:36:00,17.7,13.4,30.39,WNW,289,2.2,3.5,83,0.00,OVC,,0.00,0.0,WeatherDisplay:10.37,2013-02-09 06:36:00,
2013-02-09 01:41:00,17.5,13.2,30.39,WNW,289,0.2,1.1,83,0.00,OVC,,0.00,0.0,WeatherDisplay:10.37,2013-02-09 06:41:00,
2013-02-09 01:46:00,17.2,12.9,30.38,WNW,289,2.2,3.5,83,0.00,OVC,,0.00,0.0,WeatherDisplay:10.37,2013-02-09 06:46:00,
2013-02-09 01:51:00,17.0,12.7,30.38,WNW,289,0.9,1.1,83,0.00,OVC,,0.00,0.0,WeatherDisplay:10.37,2013-02-09 06:51:00,
2013-02-09 01:56:00,16.7,12.4,30.38,WNW,289,3.1,3.5,83,0.00,OVC,,0.00,0.0,WeatherDisplay:10.37,2013-02-09 06:56:00,
2013-02-09 02:01:00,16.5,12.5,30.39,WNW,289,0.0,0.0,84,0.00,OVC,,0.00,0.0,WeatherDisplay:10.37,2013-02-09 07:01:00,
2013-02-09 02:06:00,16.4,12.4,30.39,WNW,289,0.2,1.1,84,0.00,OVC,,0.00,0.0,WeatherDisplay:10.37,2013-02-09 07:06:00,
2013-02-09 02:11:00,16.2,12.2,30.39,WNW,289,2.7,3.5,84,0.00,OVC,,0.00,0.0,WeatherDisplay:10.37,2013-02-09 07:11:00,
2013-02-09 02:16:00,16.1,12.4,30.40,WNW,289,3.0,3.5,85,0.00,OVC,,0.00,0.0,WeatherDisplay:10.37,2013-02-09 07:16:00,
2013-02-09 02:21:00,15.9,12.2,30.40,WNW,289,0.0,0.0,85,0.00,OVC,,0.00,0.0,WeatherDisplay:10.37,2013-02-09 07:21:00,
2013-02-09 02:26:00,15.9,12.2,30.40,WNW,292,2.7,3.5,85,0.00,OVC,,0.00,0.0,WeatherDisplay:10.37,2013-02-09 07:26:00,
2013-02-09 02:31:00,15.7,12.0,30.39,WNW,292,3.9,4.6,85,0.00,OVC,,0.00,0.0,WeatherDisplay:10.37,2013-02-09 07:31:00,
2013-02-09 02:36:00,15.7,12.0,30.39,WNW,292,0.2,1.1,85,0.00,OVC,,0.00,0.0,WeatherDisplay:10.37,2013-02-09 07:36:00,
2013-02-09 02:41:00,15.6,11.9,30.39,WNW,292,0.9,3.5,85,0.00,OVC,,0.00,0.0,WeatherDisplay:10.37,2013-02-09 07:41:00,
2013-02-09 02:46:00,15.4,11.7,30.39,WNW,292,0.0,0.0,85,0.00,OVC,,0.00,0.0,WeatherDisplay:10.37,2013-02-09 07:46:00,
2013-02-09 02:51:00,15.2,11.5,30.39,WNW,292,1.9,3.5,85,0.00,OVC,,0.00,0.0,WeatherDisplay:10.37,2013-02-09 07:51:00,
2013-02-09 02:56:00,15.2,11.5,30.39,WNW,292,0.2,1.1,85,0.00,OVC,,0.00,0.0,WeatherDisplay:10.37,2013-02-09 07:56:00,
2013-02-09 03:01:00,15.1,11.4,30.40,WNW,292,2.2,2.2,85,0.00,SCT,,0.00,0.0,WeatherDisplay:10.37,2013-02-09 08:01:00,
2013-02-09 03:06:00,14.9,11.5,30.40,WNW,292,0.0,0.0,86,0.00,SCT,,0.00,0.0,WeatherDisplay:10.37,2013-02-09 08:06:00,
2013-02-09 03:11:00,14.8,11.4,30.40,WNW,292,0.0,0.0,86,0.00,SCT,,0.00,0.0,WeatherDisplay:10.37,2013-02-09 08:11:00,
2013-02-09 03:16:00,14.8,11.4,30.40,WNW,292,1.2,3.5,86,0.00,SCT,,0.00,0.0,WeatherDisplay:10.37,2013-02-09 08:16:00,
2013-02-09 03:21:00,14.6,11.2,30.40,WNW,292,0.0,0.0,86,0.00,SCT,,0.00,0.0,WeatherDisplay:10.37,2013-02-09 08:21:00,
2013-02-09 03:26:00,14.6,11.2,30.40,WNW,292,2.9,3.5,86,0.00,SCT,,0.00,0.0,WeatherDisplay:10.37,2013-02-09 08:26:00,
2013-02-09 03:31:00,14.4,11.0,30.40,WNW,292,0.0,0.0,86,0.00,SCT,,0.00,0.0,WeatherDisplay:10.37,2013-02-09 08:31:00,
2013-02-09 03:36:00,14.4,11.0,30.40,WNW,292,0.0,0.0,86,0.00,SCT,,0.00,0.0,WeatherDisplay:10.37,2013-02-09 08:36:00,
2013-02-09 03:41:00,14.3,10.9,30.40,WNW,292,0.0,0.0,86,0.00,SCT,,0.00,0.0,WeatherDisplay:10.37,2013-02-09 08:41:00,
2013-02-09 03:46:00,14.3,10.9,30.40,WNW,292,0.5,1.1,86,0.00,SCT,,0.00,0.0,WeatherDisplay:10.37,2013-02-09 08:46:00,
2013-02-09 03:51:00,14.3,10.9,30.40,WNW,292,3.0,3.5,86,0.00,SCT,,0.00,0.0,WeatherDisplay:10.37,2013-02-09 08:51:00,
2013-02-09 03:56:00,14.3,10.9,30.40,WNW,292,0.4,1.1,86,0.00,SCT,,0.00,0.0,WeatherDisplay:10.37,2013-02-09 08:56:00,
2013-02-09 04:01:00,14.3,10.9,30.40,WNW,292,1.2,3.5,86,0.00,SCT,,0.00,0.0,WeatherDisplay:10.37,2013-02-09 09:01:00,
2013-02-09 04:06:00,14.3,10.9,30.40,WNW,292,0.0,0.0,86,0.00,SCT,,0.00,0.0,WeatherDisplay:10.37,2013-02-09 09:06:00,
2013-02-09 04:11:00,14.1,10.7,30.40,WNW,292,0.0,0.0,86,0.00,SCT,,0.00,0.0,WeatherDisplay:10.37,2013-02-09 09:11:00,
2013-02-09 04:16:00,14.1,10.7,30.40,WNW,292,0.1,1.1,86,0.00,SCT,,0.00,0.0,WeatherDisplay:10.37,2013-02-09 09:16:00,
2013-02-09 04:21:00,14.0,10.6,30.40,WNW,292,0.2,1.1,86,0.00,SCT,,0.00,0.0,WeatherDisplay:10.37,2013-02-09 09:21:00,
2013-02-09 04:26:00,14.0,10.6,30.40,WNW,292,0.2,1.1,86,0.00,SCT,,0.00,0.0,WeatherDisplay:10.37,2013-02-09 09:26:00,
2013-02-09 04:31:00,13.8,10.4,30.41,WNW,292,0.0,1.1,86,0.00,SCT,,0.00,0.0,WeatherDisplay:10.37,2013-02-09 09:31:00,
2013-02-09 04:36:00,13.8,10.4,30.41,WNW,292,0.0,1.5,86,0.00,SCT,,0.00,0.0,WeatherDisplay:10.37,2013-02-09 09:36:00,
2013-02-09 04:41:00,13.8,10.4,30.41,WNW,292,0.7,1.5,86,0.00,SCT,,0.00,0.0,WeatherDisplay:10.37,2013-02-09 09:41:00,
2013-02-09 04:46:00,13.8,10.4,30.42,WNW,292,2.0,3.5,86,0.00,SCT,,0.00,0.0,WeatherDisplay:10.37,2013-02-09 09:46:00,
2013-02-09 04:51:00,13.8,10.4,30.42,WNW,292,1.9,3.5,86,0.00,SCT,,0.00,0.0,WeatherDisplay:10.37,2013-02-09 09:51:00,
2013-02-09 04:56:00,13.8,10.4,30.42,WNW,292,1.3,3.5,86,0.00,SCT,,0.00,0.0,WeatherDisplay:10.37,2013-02-09 09:56:00,
2013-02-09 05:01:00,13.8,10.4,30.43,WNW,292,1.6,3.5,86,0.00,CLR,,0.00,0.0,WeatherDisplay:10.37,2013-02-09 10:01:00,
2013-02-09 05:06:00,13.8,10.4,30.43,WNW,292,0.6,1.5,86,0.00,CLR,,0.00,0.0,WeatherDisplay:10.37,2013-02-09 10:06:00,
2013-02-09 05:11:00,13.8,10.4,30.43,WNW,292,2.2,3.5,86,0.00,CLR,,0.00,0.0,WeatherDisplay:10.37,2013-02-09 10:11:00,
2013-02-09 05:16:00,13.6,9.9,30.43,WNW,292,0.0,0.0,85,0.00,CLR,,0.00,0.0,WeatherDisplay:10.37,2013-02-09 10:16:00,
2013-02-09 05:21:00,13.3,9.6,30.43,WNW,292,0.0,0.0,85,0.00,CLR,,0.00,0.0,WeatherDisplay:10.37,2013-02-09 10:21:00,
2013-02-09 05:26:00,13.1,9.4,30.43,WNW,292,0.0,0.0,85,0.00,CLR,,0.00,0.0,WeatherDisplay:10.37,2013-02-09 10:26:00,
2013-02-09 05:31:00,13.1,9.4,30.43,WNW,292,0.0,0.0,85,0.00,CLR,,0.00,0.0,WeatherDisplay:10.37,2013-02-09 10:31:00,
2013-02-09 05:36:00,13.1,9.4,30.43,WNW,292,0.0,0.0,85,0.00,CLR,,0.00,0.0,WeatherDisplay:10.37,2013-02-09 10:36:00,
2013-02-09 05:41:00,12.9,9.2,30.43,WNW,292,0.0,0.0,85,0.00,CLR,,0.00,0.0,WeatherDisplay:10.37,2013-02-09 10:41:00,
2013-02-09 05:46:00,12.8,9.1,30.42,WNW,292,0.0,0.0,85,0.00,CLR,,0.00,0.0,WeatherDisplay:10.37,2013-02-09 10:46:00,
2013-02-09 05:51:00,12.6,8.9,30.42,WNW,292,0.0,0.0,85,0.00,CLR,,0.00,0.0,WeatherDisplay:10.37,2013-02-09 10:51:00,
2013-02-09 05:56:00,12.1,8.5,30.42,WNW,292,0.0,0.0,85,0.00,CLR,,0.00,0.0,WeatherDisplay:10.37,2013-02-09 10:56:00,
2013-02-09 06:01:00,11.9,8.3,30.42,WNW,292,0.0,0.0,85,0.00,CLR,,0.00,0.0,WeatherDisplay:10.37,2013-02-09 11:01:00,
2013-02-09 06:06:00,11.6,8.0,30.42,WNW,292,0.0,0.0,85,0.00,CLR,,0.00,0.0,WeatherDisplay:10.37,2013-02-09 11:06:00,
2013-02-09 06:11:00,11.2,7.6,30.42,WNW,292,0.0,0.0,85,0.00,CLR,,0.00,0.0,WeatherDisplay:10.37,2013-02-09 11:11:00,
2013-02-09 06:16:00,10.9,7.3,30.42,WNW,292,0.0,0.0,85,0.00,CLR,,0.00,0.0,WeatherDisplay:10.37,2013-02-09 11:16:00,
2013-02-09 06:21:00,10.7,7.1,30.42,WNW,292,0.0,0.0,85,0.00,CLR,,0.00,0.0,WeatherDisplay:10.37,2013-02-09 11:21:00,
2013-02-09 06:26:00,10.7,7.3,30.42,WNW,292,0.0,0.0,86,0.00,CLR,,0.00,0.0,WeatherDisplay:10.37,2013-02-09 11:26:00,
2013-02-09 06:31:00,10.7,7.3,30.43,WNW,292,0.0,0.0,86,0.00,CLR,,0.00,0.0,WeatherDisplay:10.37,2013-02-09 11:31:00,
2013-02-09 06:36:00,10.5,7.1,30.43,WNW,292,0.0,0.0,86,0.00,CLR,,0.00,0.0,WeatherDisplay:10.37,2013-02-09 11:36:00,
2013-02-09 06:41:00,10.5,7.1,30.43,WNW,292,0.0,0.0,86,0.00,CLR,,0.00,0.0,WeatherDisplay:10.37,2013-02-09 11:41:00,
2013-02-09 06:46:00,10.7,7.3,30.44,WNW,292,0.0,0.0,86,0.00,CLR,,0.00,0.0,WeatherDisplay:10.37,2013-02-09 11:46:00,
2013-02-09 06:51:00,10.5,7.1,30.44,WNW,292,0.0,0.0,86,0.00,CLR,,0.00,0.0,WeatherDisplay:10.37,2013-02-09 11:51:00,
2013-02-09 06:56:00,10.2,6.8,30.44,WNW,292,0.0,0.0,86,0.00,CLR,,0.00,0.0,WeatherDisplay:10.37,2013-02-09 11:56:00,
2013-02-09 07:01:00,10.0,6.6,30.45,WNW,292,0.0,0.0,86,0.00,CLR,,0.00,0.0,WeatherDisplay:10.37,2013-02-09 12:01:00,
2013-02-09 07:06:00,9.9,6.6,30.45,WNW,292,0.0,0.0,86,0.00,CLR,,0.00,0.0,WeatherDisplay:10.37,2013-02-09 12:06:00,
2013-02-09 07:11:00,9.7,6.4,30.45,WNW,292,0.0,0.0,86,0.00,CLR,,0.00,0.0,WeatherDisplay:10.37,2013-02-09 12:11:00,
2013-02-09 07:16:00,9.5,6.2,30.45,WNW,292,0.0,0.0,86,0.00,CLR,,0.00,0.0,WeatherDisplay:10.37,2013-02-09 12:16:00,
2013-02-09 07:21:00,9.3,6.0,30.45,WNW,292,0.0,0.0,86,0.00,CLR,,0.00,0.0,WeatherDisplay:10.37,2013-02-09 12:21:00,
2013-02-09 07:26:00,9.2,5.9,30.45,WNW,292,0.0,0.0,86,0.00,CLR,,0.00,0.0,WeatherDisplay:10.37,2013-02-09 12:26:00,
2013-02-09 07:31:00,9.0,5.7,30.45,WNW,292,0.0,0.0,86,0.00,CLR,,0.00,0.0,WeatherDisplay:10.37,2013-02-09 12:31:00,
2013-02-09 07:36:00,9.0,5.7,30.45,WNW,292,0.0,0.0,86,0.00,CLR,,0.00,0.0,WeatherDisplay:10.37,2013-02-09 12:36:00,
2013-02-09 07:41:00,8.8,5.5,30.45,WNW,292,0.0,0.0,86,0.00,CLR,,0.00,5.0,WeatherDisplay:10.37,2013-02-09 12:41:00,
2013-02-09 07:46:00,8.8,5.5,30.45,WNW,292,0.0,0.0,86,0.00,CLR,,0.00,5.0,WeatherDisplay:10.37,2013-02-09 12:46:00,
2013-02-09 07:51:00,8.8,5.7,30.45,WNW,292,0.0,0.0,87,0.00,CLR,,0.00,7.0,WeatherDisplay:10.37,2013-02-09 12:51:00,
2013-02-09 07:56:00,8.8,5.7,30.45,WNW,292,0.0,0.0,87,0.00,CLR,,0.00,9.0,WeatherDisplay:10.37,2013-02-09 12:56:00,
2013-02-09 08:01:00,9.3,6.2,30.46,WNW,292,0.0,0.0,87,0.00,CLR,,0.00,11.0,WeatherDisplay:10.37,2013-02-09 13:01:00,
2013-02-09 08:06:00,9.9,7.1,30.46,WNW,292,0.0,0.0,88,0.00,CLR,,0.00,12.0,WeatherDisplay:10.37,2013-02-09 13:06:00,
2013-02-09 08:11:00,10.2,7.4,30.46,WNW,292,0.0,0.0,88,0.00,CLR,,0.00,14.0,WeatherDisplay:10.37,2013-02-09 13:11:00,
2013-02-09 08:16:00,10.5,7.6,30.46,WNW,292,0.0,0.0,88,0.00,CLR,,0.00,18.0,WeatherDisplay:10.37,2013-02-09 13:16:00,
2013-02-09 08:21:00,11.1,8.2,30.46,WNW,292,0.0,0.0,88,0.00,CLR,,0.00,40.0,WeatherDisplay:10.37,2013-02-09 13:21:00,
2013-02-09 08:26:00,11.6,8.7,30.46,WNW,292,0.0,0.0,88,0.00,CLR,,0.00,53.0,WeatherDisplay:10.37,2013-02-09 13:26:00,
2013-02-09 08:31:00,11.9,9.3,30.46,WNW,292,0.0,0.0,89,0.00,CLR,,0.00,49.0,WeatherDisplay:10.37,2013-02-09 13:31:00,
2013-02-09 08:36:00,13.1,10.5,30.46,WNW,292,0.0,0.0,89,0.00,CLR,,0.00,42.0,WeatherDisplay:10.37,2013-02-09 13:36:00,
2013-02-09 08:41:00,13.8,11.2,30.46,WNW,292,0.0,0.0,89,0.00,CLR,,0.00,25.0,WeatherDisplay:10.37,2013-02-09 13:41:00,
2013-02-09 08:46:00,14.6,11.9,30.47,WNW,292,0.0,0.0,89,0.00,CLR,,0.00,26.0,WeatherDisplay:10.37,2013-02-09 13:46:00,
2013-02-09 08:51:00,15.2,12.5,30.47,WNW,292,0.0,0.0,89,0.00,CLR,,0.00,26.0,WeatherDisplay:10.37,2013-02-09 13:51:00,
2013-02-09 08:56:00,15.9,13.2,30.47,WNW,292,0.0,0.0,89,0.00,CLR,,0.00,30.0,WeatherDisplay:10.37,2013-02-09 13:56:00,
2013-02-09 09:01:00,16.4,13.7,30.47,WNW,292,0.0,0.0,89,0.00,CLR,,0.00,32.0,WeatherDisplay:10.37,2013-02-09 14:01:00,
2013-02-09 09:06:00,17.0,14.3,30.47,WNW,292,0.5,1.1,89,0.00,CLR,,0.00,32.0,WeatherDisplay:10.37,2013-02-09 14:06:00,
2013-02-09 09:11:00,17.3,14.6,30.47,WNW,292,0.0,0.0,89,0.00,CLR,,0.00,35.0,WeatherDisplay:10.37,2013-02-09 14:11:00,
2013-02-09 09:16:00,17.7,14.8,30.47,WNW,292,0.2,1.1,88,0.00,CLR,,0.00,39.0,WeatherDisplay:10.37,2013-02-09 14:16:00,
2013-02-09 09:21:00,18.3,15.3,30.47,WNW,292,0.0,0.0,88,0.00,CLR,,0.00,35.0,WeatherDisplay:10.37,2013-02-09 14:21:00,
2013-02-09 09:26:00,18.8,15.8,30.47,WNW,292,0.0,0.0,88,0.00,CLR,,0.00,37.0,WeatherDisplay:10.37,2013-02-09 14:26:00,
2013-02-09 09:31:00,19.2,16.2,30.46,WNW,292,0.0,0.0,88,0.00,CLR,,0.00,37.0,WeatherDisplay:10.37,2013-02-09 14:31:00,
2013-02-09 09:36:00,19.7,16.5,30.46,WNW,292,0.0,0.0,87,0.00,CLR,,0.00,49.0,WeatherDisplay:10.37,2013-02-09 14:36:00,
2013-02-09 09:41:00,20.5,17.0,30.46,WNW,292,0.0,0.0,86,0.00,CLR,,0.00,86.0,WeatherDisplay:10.37,2013-02-09 14:41:00,
2013-02-09 09:46:00,21.4,17.6,30.45,West,280,1.3,3.5,85,0.00,CLR,,0.00,83.0,WeatherDisplay:10.37,2013-02-09 14:46:00,
2013-02-09 09:51:00,22.7,18.0,30.45,West,277,0.3,1.1,82,0.00,CLR,,0.00,104.0,WeatherDisplay:10.37,2013-02-09 14:51:00,
2013-02-09 09:56:00,23.0,17.7,30.45,West,277,0.0,0.0,80,0.00,CLR,,0.00,81.0,WeatherDisplay:10.37,2013-02-09 14:56:00,
2013-02-09 10:01:00,23.6,17.7,30.46,West,277,0.0,0.0,78,0.00,CLR,,0.00,70.0,WeatherDisplay:10.37,2013-02-09 15:01:00,
2013-02-09 10:06:00,24.1,17.9,30.46,West,271,1.7,3.5,77,0.00,CLR,,0.00,86.0,WeatherDisplay:10.37,2013-02-09 15:06:00,
2013-02-09 10:11:00,24.4,17.6,30.46,West,270,0.0,0.0,75,0.00,CLR,,0.00,95.0,WeatherDisplay:10.37,2013-02-09 15:11:00,
2013-02-09 10:16:00,24.5,17.4,30.46,West,271,3.1,3.5,74,0.00,CLR,,0.00,104.0,WeatherDisplay:10.37,2013-02-09 15:16:00,
2013-02-09 10:21:00,24.8,17.7,30.46,West,271,0.0,0.0,74,0.00,CLR,,0.00,72.0,WeatherDisplay:10.37,2013-02-09 15:21:00,
2013-02-09 10:26:00,25.1,17.0,30.46,West,271,0.0,0.0,71,0.00,CLR,,0.00,99.0,WeatherDisplay:10.37,2013-02-09 15:26:00,
2013-02-09 10:31:00,25.4,17.0,30.46,WSW,250,1.7,1.7,70,0.00,CLR,,0.00,83.0,WeatherDisplay:10.37,2013-02-09 15:31:00,
2013-02-09 10:36:00,26.0,17.2,30.46,WSW,253,0.3,1.5,69,0.00,CLR,,0.00,107.0,WeatherDisplay:10.37,2013-02-09 15:36:00,
2013-02-09 10:41:00,26.4,17.6,30.46,WSW,256,1.7,3.5,69,0.00,CLR,,0.00,172.0,WeatherDisplay:10.37,2013-02-09 15:41:00,
2013-02-09 10:46:00,26.6,17.5,30.46,WSW,253,2.2,2.2,68,0.00,CLR,,0.00,172.0,WeatherDisplay:10.37,2013-02-09 15:46:00,
2013-02-09 10:51:00,27.0,17.5,30.46,West,264,1.0,1.1,67,0.00,CLR,,0.00,128.0,WeatherDisplay:10.37,2013-02-09 15:51:00,
2013-02-09 10:56:00,27.2,17.3,30.46,ESE,102,4.7,4.7,66,0.00,CLR,,0.00,151.0,WeatherDisplay:10.37,2013-02-09 15:56:00,
2013-02-09 11:01:00,27.0,17.5,30.45,ESE,106,4.0,4.6,67,0.00,FEW,,0.00,192.0,WeatherDisplay:10.37,2013-02-09 16:01:00,
2013-02-09 11:06:00,27.0,17.8,30.45,ESE,103,2.7,4.6,68,0.00,FEW,,0.00,157.0,WeatherDisplay:10.37,2013-02-09 16:06:00,
2013-02-09 11:11:00,27.2,18.0,30.45,SSE,147,3.6,3.6,68,0.00,FEW,,0.00,267.0,WeatherDisplay:10.37,2013-02-09 16:11:00,
2013-02-09 11:16:00,27.0,17.5,30.46,SE,127,4.8,4.8,67,0.00,FEW,,0.00,394.0,WeatherDisplay:10.37,2013-02-09 16:16:00,
2013-02-09 11:21:00,27.0,17.5,30.46,ESE,104,9.0,9.2,67,0.00,FEW,,0.00,470.0,WeatherDisplay:10.37,2013-02-09 16:21:00,
2013-02-09 11:26:00,27.3,18.5,30.46,ESE,119,4.2,4.6,69,0.00,FEW,,0.00,500.0,WeatherDisplay:10.37,2013-02-09 16:26:00,
2013-02-09 11:31:00,27.8,18.3,30.45,ESE,117,6.0,8.1,67,0.00,FEW,,0.00,519.0,WeatherDisplay:10.37,2013-02-09 16:31:00,
2013-02-09 11:36:00,27.8,17.6,30.45,ESE,109,4.2,4.6,65,0.00,FEW,,0.00,545.0,WeatherDisplay:10.37,2013-02-09 16:36:00,
2013-02-09 11:41:00,27.9,17.3,30.45,ESE,110,5.9,8.1,64,0.00,FEW,,0.00,561.0,WeatherDisplay:10.37,2013-02-09 16:41:00,
2013-02-09 11:46:00,27.9,16.9,30.45,ESE,106,2.4,3.5,63,0.00,FEW,,0.00,554.0,WeatherDisplay:10.37,2013-02-09 16:46:00,
2013-02-09 11:51:00,28.5,18.6,30.45,ESE,107,5.1,5.8,66,0.00,FEW,,0.00,560.0,WeatherDisplay:10.37,2013-02-09 16:51:00,
2013-02-09 11:56:00,28.7,17.7,30.45,ESE,110,5.0,5.0,63,0.00,FEW,,0.00,563.0,WeatherDisplay:10.37,2013-02-09 16:56:00,
2013-02-09 12:01:00,28.8,18.1,30.45,ESE,103,4.1,4.6,64,0.00,FEW,,0.00,545.0,WeatherDisplay:10.37,2013-02-09 17:01:00,
2013-02-09 12:06:00,29.1,18.4,30.45,ESE,113,1.6,4.6,64,0.00,FEW,,0.00,547.0,WeatherDisplay:10.37,2013-02-09 17:06:00,
2013-02-09 12:11:00,29.4,18.0,30.45,ESE,112,6.4,8.1,62,0.00,FEW,,0.00,588.0,WeatherDisplay:10.37,2013-02-09 17:11:00,
2013-02-09 12:16:00,29.4,17.6,30.44,ESE,112,2.7,3.5,61,0.00,FEW,,0.00,574.0,WeatherDisplay:10.37,2013-02-09 17:16:00,
2013-02-09 12:21:00,30.0,18.2,30.44,ESE,109,3.1,4.6,61,0.00,FEW,,0.00,577.0,WeatherDisplay:10.37,2013-02-09 17:21:00,
2013-02-09 12:26:00,30.1,18.3,30.44,ESE,109,2.5,3.5,61,0.00,FEW,,0.00,579.0,WeatherDisplay:10.37,2013-02-09 17:26:00,
2013-02-09 12:31:00,30.3,17.7,30.44,ESE,109,2.9,4.6,59,0.00,FEW,,0.00,586.0,WeatherDisplay:10.37,2013-02-09 17:31:00,
2013-02-09 12:36:00,30.9,19.4,30.44,ESE,109,4.0,8.1,62,0.00,FEW,,0.00,602.0,WeatherDisplay:10.37,2013-02-09 17:36:00,
2013-02-09 12:41:00,31.3,19.8,30.44,ESE,109,5.0,5.0,62,0.00,FEW,,0.00,605.0,WeatherDisplay:10.37,2013-02-09 17:41:00,
2013-02-09 12:46:00,31.5,19.6,30.43,ESE,109,4.3,4.6,61,0.00,FEW,,0.00,600.0,WeatherDisplay:10.37,2013-02-09 17:46:00,
2013-02-09 12:51:00,31.5,19.2,30.43,ESE,109,3.3,3.5,60,0.00,FEW,,0.00,609.0,WeatherDisplay:10.37,2013-02-09 17:51:00,
2013-02-09 12:56:00,31.3,18.2,30.43,ESE,102,5.1,5.8,58,0.00,FEW,,0.00,612.0,WeatherDisplay:10.37,2013-02-09 17:56:00,
2013-02-09 13:01:00,31.5,18.4,30.42,ESE,102,4.8,5.8,58,0.00,CLR,,0.00,607.0,WeatherDisplay:10.37,2013-02-09 18:01:00,
2013-02-09 13:06:00,31.6,18.5,30.42,ESE,102,3.0,3.5,58,0.00,CLR,,0.00,519.0,WeatherDisplay:10.37,2013-02-09 18:06:00,
2013-02-09 13:11:00,31.6,18.1,30.42,ESE,102,3.5,7.5,57,0.00,CLR,,0.00,582.0,WeatherDisplay:10.37,2013-02-09 18:11:00,
2013-02-09 13:16:00,31.8,18.3,30.42,East,89,7.7,9.2,57,0.00,CLR,,0.00,345.0,WeatherDisplay:10.37,2013-02-09 18:16:00,
2013-02-09 13:21:00,31.9,18.8,30.42,SSE,147,6.6,8.1,58,0.00,CLR,,0.00,410.0,WeatherDisplay:10.37,2013-02-09 18:21:00,
2013-02-09 13:26:00,31.9,18.8,30.42,ESE,113,8.5,9.0,58,0.00,CLR,,0.00,551.0,WeatherDisplay:10.37,2013-02-09 18:26:00,
2013-02-09 13:31:00,31.6,18.5,30.41,ESE,109,8.3,10.4,58,0.00,CLR,,0.00,602.0,WeatherDisplay:10.37,2013-02-09 18:31:00,
2013-02-09 13:36:00,31.9,19.2,30.41,ESE,112,5.1,5.1,59,0.00,CLR,,0.00,600.0,WeatherDisplay:10.37,2013-02-09 18:36:00,
2013-02-09 13:41:00,32.1,19.0,30.41,ESE,110,7.5,9.2,58,0.00,CLR,,0.00,595.0,WeatherDisplay:10.37,2013-02-09 18:41:00,
2013-02-09 13:46:00,31.5,17.6,30.41,ESE,109,8.4,9.2,56,0.00,CLR,,0.00,593.0,WeatherDisplay:10.37,2013-02-09 18:46:00,
2013-02-09 13:51:00,31.5,18.8,30.41,SW,229,4.0,8.1,59,0.00,CLR,,0.00,586.0,WeatherDisplay:10.37,2013-02-09 18:51:00,
2013-02-09 13:56:00,32.2,19.5,30.41,South,182,6.0,8.1,59,0.00,CLR,,0.00,582.0,WeatherDisplay:10.37,2013-02-09 18:56:00,
2013-02-09 14:01:00,32.8,19.6,30.41,SSW,199,3.2,7.5,58,0.00,SCT,,0.00,575.0,WeatherDisplay:10.37,2013-02-09 19:01:00,
2013-02-09 14:06:00,32.9,18.5,30.41,SSW,206,4.0,8.1,55,0.00,SCT,,0.00,572.0,WeatherDisplay:10.37,2013-02-09 19:06:00,
2013-02-09 14:11:00,32.8,18.8,30.41,SSE,165,4.9,6.0,56,0.00,SCT,,0.00,567.0,WeatherDisplay:10.37,2013-02-09 19:11:00,
2013-02-09 14:16:00,32.7,18.7,30.41,South,184,3.0,4.6,56,0.00,SCT,,0.00,545.0,WeatherDisplay:10.37,2013-02-09 19:16:00,
2013-02-09 14:21:00,32.8,18.8,30.41,West,261,4.2,4.6,56,0.00,SCT,,0.00,496.0,WeatherDisplay:10.37,2013-02-09 19:21:00,
2013-02-09 14:26:00,32.7,18.7,30.41,WSW,247,4.9,7.5,56,0.00,SCT,,0.00,500.0,WeatherDisplay:10.37,2013-02-09 19:26:00,
2013-02-09 14:31:00,32.5,19.3,30.40,WSW,256,4.0,6.0,58,0.00,SCT,,0.00,484.0,WeatherDisplay:10.37,2013-02-09 19:31:00,
2013-02-09 14:36:00,32.5,18.1,30.40,ESE,106,7.8,10.4,55,0.00,SCT,,0.00,487.0,WeatherDisplay:10.37,2013-02-09 19:36:00,
2013-02-09 14:41:00,32.4,18.4,30.40,ESE,121,3.7,4.6,56,0.00,SCT,,0.00,484.0,WeatherDisplay:10.37,2013-02-09 19:41:00,
2013-02-09 14:46:00,32.5,19.3,30.39,SE,144,4.3,4.6,58,0.00,SCT,,0.00,466.0,WeatherDisplay:10.37,2013-02-09 19:46:00,
2013-02-09 14:51:00,32.5,18.9,30.39,South,184,4.6,4.6,57,0.00,SCT,,0.00,470.0,WeatherDisplay:10.37,2013-02-09 19:51:00,
2013-02-09 14:56:00,32.4,19.3,30.39,SSW,209,2.4,6.0,58,0.00,SCT,,0.00,454.0,WeatherDisplay:10.37,2013-02-09 19:56:00,
2013-02-09 15:01:00,32.4,19.3,30.39,ESE,120,7.1,9.2,58,0.00,SCT,,0.00,442.0,WeatherDisplay:10.37,2013-02-09 20:01:00,
2013-02-09 15:06:00,32.7,19.9,30.39,SE,127,3.8,3.8,59,0.00,SCT,,0.00,447.0,WeatherDisplay:10.37,2013-02-09 20:06:00,
2013-02-09 15:11:00,32.7,19.1,30.39,South,185,6.8,8.1,57,0.00,SCT,,0.00,421.0,WeatherDisplay:10.37,2013-02-09 20:11:00,
2013-02-09 15:16:00,32.5,19.7,30.39,ESE,113,9.9,10.4,59,0.00,SCT,,0.00,415.0,WeatherDisplay:10.37,2013-02-09 20:16:00,
2013-02-09 15:21:00,32.2,19.9,30.39,SSE,154,4.6,8.1,60,0.00,SCT,,0.00,403.0,WeatherDisplay:10.37,2013-02-09 20:21:00,
2013-02-09 15:26:00,32.2,19.5,30.39,South,176,5.5,9.2,59,0.00,SCT,,0.00,387.0,WeatherDisplay:10.37,2013-02-09 20:26:00,
2013-02-09 15:31:00,31.9,19.2,30.38,West,260,4.7,4.7,59,0.00,SCT,,0.00,385.0,WeatherDisplay:10.37,2013-02-09 20:31:00,
2013-02-09 15:36:00,32.2,20.6,30.38,SSW,208,2.9,3.5,62,0.00,SCT,,0.00,377.0,WeatherDisplay:10.37,2013-02-09 20:36:00,
2013-02-09 15:41:00,32.4,20.4,30.38,SSE,167,4.7,4.7,61,0.00,SCT,,0.00,361.0,WeatherDisplay:10.37,2013-02-09 20:41:00,
2013-02-09 15:46:00,32.4,20.4,30.38,SSE,167,2.7,4.6,61,0.00,SCT,,0.00,341.0,WeatherDisplay:10.37,2013-02-09 20:46:00,
2013-02-09 15:51:00,32.4,20.4,30.38,ESE,112,4.6,8.1,61,0.00,SCT,,0.00,329.0,WeatherDisplay:10.37,2013-02-09 20:51:00,
2013-02-09 15:56:00,31.6,20.1,30.38,South,181,4.6,4.6,62,0.00,SCT,,0.00,253.0,WeatherDisplay:10.37,2013-02-09 20:56:00,
2013-02-09 16:01:00,31.2,19.7,30.38,ESE,113,5.1,5.8,62,0.00,SCT,,0.00,310.0,WeatherDisplay:10.37,2013-02-09 21:01:00,
2013-02-09 16:06:00,30.6,19.5,30.38,ESE,107,12.0,12.0,63,0.00,SCT,,0.00,296.0,WeatherDisplay:10.37,2013-02-09 21:06:00,
2013-02-09 16:11:00,30.0,19.3,30.38,ESE,120,8.3,10.4,64,0.00,SCT,,0.00,289.0,WeatherDisplay:10.37,2013-02-09 21:11:00,
2013-02-09 16:16:00,30.0,19.3,30.38,ESE,113,10.2,10.4,64,0.00,SCT,,0.00,271.0,WeatherDisplay:10.37,2013-02-09 21:16:00,
2013-02-09 16:21:00,30.0,19.7,30.38,SE,138,4.9,4.9,65,0.00,SCT,,0.00,255.0,WeatherDisplay:10.37,2013-02-09 21:21:00,
2013-02-09 16:26:00,29.8,19.5,30.38,ESE,107,3.8,4.6,65,0.00,SCT,,0.00,248.0,WeatherDisplay:10.37,2013-02-09 21:26:00,
2013-02-09 16:31:00,29.7,19.4,30.38,SSE,154,7.9,8.1,65,0.00,SCT,,0.00,209.0,WeatherDisplay:10.37,2013-02-09 21:31:00,
2013-02-09 16:37:00,29.4,19.4,30.38,ESE,110,7.9,9.0,66,0.00,SCT,,0.00,128.0,WeatherDisplay:10.37,2013-02-09 21:37:00,
2013-02-09 16:42:00,29.0,19.1,30.38,SE,127,5.2,5.8,66,0.00,SCT,,0.00,104.0,WeatherDisplay:10.37,2013-02-09 21:42:00,
2013-02-09 16:47:00,29.0,19.1,30.38,ESE,106,6.5,8.1,66,0.00,SCT,,0.00,157.0,WeatherDisplay:10.37,2013-02-09 21:47:00,
2013-02-09 16:52:00,28.8,19.2,30.38,ESE,112,8.1,8.1,67,0.00,SCT,,0.00,151.0,WeatherDisplay:10.37,2013-02-09 21:52:00,
2013-02-09 16:57:00,28.5,18.9,30.38,ESE,103,5.4,8.1,67,0.00,SCT,,0.00,104.0,WeatherDisplay:10.37,2013-02-09 21:57:00,
2013-02-09 17:02:00,28.4,19.2,30.37,SSE,158,3.4,5.8,68,0.00,SCT,,0.00,37.0,WeatherDisplay:10.37,2013-02-09 22:02:00,
2013-02-09 17:07:00,28.2,19.3,30.37,ESE,110,4.3,4.6,69,0.00,SCT,,0.00,32.0,WeatherDisplay:10.37,2013-02-09 22:07:00,
2013-02-09 17:12:00,27.8,18.9,30.37,ESE,112,4.1,5.8,69,0.00,SCT,,0.00,56.0,WeatherDisplay:10.37,2013-02-09 22:12:00,
2013-02-09 17:17:00,27.5,19.3,30.37,ESE,113,9.0,9.0,71,0.00,SCT,,0.00,30.0,WeatherDisplay:10.37,2013-02-09 22:17:00,
2013-02-09 17:22:00,27.3,19.1,30.37,ESE,110,3.3,4.6,71,0.00,SCT,,0.00,26.0,WeatherDisplay:10.37,2013-02-09 22:22:00,
2013-02-09 17:27:00,27.2,19.4,30.37,ESE,109,5.6,9.0,72,0.00,SCT,,0.00,26.0,WeatherDisplay:10.37,2013-02-09 22:27:00,
2013-02-09 17:32:00,26.9,19.1,30.38,ESE,109,5.1,5.1,72,0.00,SCT,,0.00,21.0,WeatherDisplay:10.37,2013-02-09 22:32:00,
2013-02-09 17:37:00,26.7,19.2,30.38,ESE,109,6.4,8.1,73,0.00,SCT,,0.00,18.0,WeatherDisplay:10.37,2013-02-09 22:37:00,
2013-02-09 17:42:00,26.6,19.4,30.38,ESE,114,6.5,6.5,74,0.00,SCT,,0.00,14.0,WeatherDisplay:10.37,2013-02-09 22:42:00,
2013-02-09 17:47:00,26.4,19.2,30.38,ESE,114,1.5,3.5,74,0.00,SCT,,0.00,12.0,WeatherDisplay:10.37,2013-02-09 22:47:00,
2013-02-09 17:52:00,26.3,19.5,30.38,ESE,114,2.2,2.2,75,0.00,SCT,,0.00,9.0,WeatherDisplay:10.37,2013-02-09 22:52:00,
2013-02-09 17:57:00,26.0,19.2,30.38,South,181,1.4,5.8,75,0.00,SCT,,0.00,7.0,WeatherDisplay:10.37,2013-02-09 22:57:00,
2013-02-09 18:02:00,25.8,19.3,30.38,South,181,1.4,3.5,76,0.00,SCT,,0.00,5.0,WeatherDisplay:10.37,2013-02-09 23:02:00,
2013-02-09 18:07:00,25.7,19.2,30.38,South,181,3.3,4.6,76,0.00,SCT,,0.00,0.0,WeatherDisplay:10.37,2013-02-09 23:07:00,
2013-02-09 18:12:00,25.4,19.2,30.38,South,181,2.8,4.6,77,0.00,SCT,,0.00,0.0,WeatherDisplay:10.37,2013-02-09 23:12:00,
2013-02-09 18:17:00,25.3,19.1,30.38,South,181,3.1,3.5,77,0.00,SCT,,0.00,0.0,WeatherDisplay:10.37,2013-02-09 23:17:00,
2013-02-09 18:22:00,25.3,19.4,30.38,South,172,2.4,3.5,78,0.00,SCT,,0.00,0.0,WeatherDisplay:10.37,2013-02-09 23:22:00,
2013-02-09 18:27:00,25.1,19.2,30.38,South,172,0.9,3.5,78,0.00,SCT,,0.00,0.0,WeatherDisplay:10.37,2013-02-09 23:27:00,
2013-02-09 18:32:00,24.8,19.2,30.39,South,172,1.0,1.1,79,0.00,SCT,,0.00,0.0,WeatherDisplay:10.37,2013-02-09 23:32:00,
2013-02-09 18:37:00,24.7,19.1,30.39,South,172,1.5,3.0,79,0.00,SCT,,0.00,0.0,WeatherDisplay:10.37,2013-02-09 23:37:00,
2013-02-09 18:42:00,24.7,19.4,30.39,South,172,2.1,3.0,80,0.00,SCT,,0.00,0.0,WeatherDisplay:10.37,2013-02-09 23:42:00,
2013-02-09 18:47:00,24.5,19.2,30.39,South,172,2.3,3.5,80,0.00,SCT,,0.00,0.0,WeatherDisplay:10.37,2013-02-09 23:47:00,
2013-02-09 18:52:00,24.4,19.1,30.39,South,172,0.0,1.1,80,0.00,SCT,,0.00,0.0,WeatherDisplay:10.37,2013-02-09 23:52:00,
2013-02-09 18:57:00,24.2,18.9,30.39,South,172,0.0,0.0,80,0.00,SCT,,0.00,0.0,WeatherDisplay:10.37,2013-02-09 23:57:00,
2013-02-09 19:02:00,24.1,19.1,30.39,South,172,0.8,1.5,81,0.00,BKN,,0.00,0.0,WeatherDisplay:10.37,2013-02-10 00:02:00,
2013-02-09 19:07:00,23.9,18.9,30.39,South,172,0.2,1.5,81,0.00,BKN,,0.00,0.0,WeatherDisplay:10.37,2013-02-10 00:07:00,
2013-02-09 19:12:00,23.8,19.1,30.39,South,172,2.6,3.5,82,0.00,BKN,,0.00,0.0,WeatherDisplay:10.37,2013-02-10 00:12:00,
2013-02-09 19:17:00,23.8,19.4,30.38,South,172,2.8,3.5,83,0.00,BKN,,0.00,0.0,WeatherDisplay:10.37,2013-02-10 00:17:00,
2013-02-09 19:22:00,23.8,19.4,30.38,South,172,1.7,3.5,83,0.00,BKN,,0.00,0.0,WeatherDisplay:10.37,2013-02-10 00:22:00,
2013-02-09 19:27:00,23.9,19.5,30.38,South,172,2.7,4.6,83,0.00,BKN,,0.00,0.0,WeatherDisplay:10.37,2013-02-10 00:27:00,
2013-02-09 19:32:00,23.9,19.5,30.37,South,172,3.9,4.5,83,0.00,BKN,,0.00,0.0,WeatherDisplay:10.37,2013-02-10 00:32:00,
2013-02-09 19:37:00,23.9,19.5,30.37,South,172,2.9,3.5,83,0.00,BKN,,0.00,0.0,WeatherDisplay:10.37,2013-02-10 00:37:00,
2013-02-09 19:42:00,23.8,19.4,30.37,South,172,1.0,3.5,83,0.00,BKN,,0.00,0.0,WeatherDisplay:10.37,2013-02-10 00:42:00,
2013-02-09 19:47:00,23.6,19.5,30.37,South,172,3.5,3.5,84,0.00,BKN,,0.00,0.0,WeatherDisplay:10.37,2013-02-10 00:47:00,
2013-02-09 19:52:00,23.5,19.4,30.37,South,172,3.2,3.5,84,0.00,BKN,,0.00,0.0,WeatherDisplay:10.37,2013-02-10 00:52:00,
2013-02-09 19:57:00,23.5,19.7,30.37,South,172,1.6,3.5,85,0.00,BKN,,0.00,0.0,WeatherDisplay:10.37,2013-02-10 00:57:00,
2013-02-09 20:02:00,23.5,19.7,30.36,South,172,4.3,4.6,85,0.00,BKN,,0.00,0.0,WeatherDisplay:10.37,2013-02-10 01:02:00,
2013-02-09 20:07:00,23.5,19.7,30.36,South,172,4.1,4.6,85,0.00,BKN,,0.00,0.0,WeatherDisplay:10.37,2013-02-10 01:07:00,
2013-02-09 20:12:00,23.5,19.7,30.36,South,172,0.9,1.5,85,0.00,BKN,,0.00,0.0,WeatherDisplay:10.37,2013-02-10 01:12:00,
2013-02-09 20:17:00,23.3,19.5,30.36,South,172,2.9,3.5,85,0.00,BKN,,0.00,0.0,WeatherDisplay:10.37,2013-02-10 01:17:00,
2013-02-09 20:22:00,23.3,19.5,30.36,South,172,2.8,3.5,85,0.00,BKN,,0.00,0.0,WeatherDisplay:10.37,2013-02-10 01:22:00,
2013-02-09 20:27:00,23.3,19.5,30.36,South,172,2.5,3.5,85,0.00,BKN,,0.00,0.0,WeatherDisplay:10.37,2013-02-10 01:27:00,
2013-02-09 20:32:00,23.3,19.7,30.37,South,172,3.3,4.6,86,0.00,BKN,,0.00,0.0,WeatherDisplay:10.37,2013-02-10 01:32:00,
2013-02-09 20:37:00,23.2,19.6,30.37,South,172,2.5,3.5,86,0.00,BKN,,0.00,0.0,WeatherDisplay:10.37,2013-02-10 01:37:00,
2013-02-09 20:42:00,23.2,19.6,30.37,South,172,0.5,3.0,86,0.00,BKN,,0.00,0.0,WeatherDisplay:10.37,2013-02-10 01:42:00,
2013-02-09 20:47:00,23.2,19.6,30.36,South,172,1.5,3.5,86,0.00,BKN,,0.00,0.0,WeatherDisplay:10.37,2013-02-10 01:47:00,
2013-02-09 20:52:00,23.0,19.4,30.36,South,172,2.5,3.0,86,0.00,BKN,,0.00,0.0,WeatherDisplay:10.37,2013-02-10 01:52:00,
2013-02-09 20:57:00,22.9,19.3,30.36,South,172,2.2,3.5,86,0.00,BKN,,0.00,0.0,WeatherDisplay:10.37,2013-02-10 01:57:00,
2013-02-09 21:02:00,22.9,19.3,30.35,South,172,1.7,1.7,86,0.00,BKN,,0.00,0.0,WeatherDisplay:10.37,2013-02-10 02:02:00,
2013-02-09 21:07:00,22.9,19.6,30.35,South,172,3.6,4.5,87,0.00,BKN,,0.00,0.0,WeatherDisplay:10.37,2013-02-10 02:07:00,
2013-02-09 21:12:00,22.9,19.6,30.35,South,172,1.2,1.2,87,0.00,BKN,,0.00,0.0,WeatherDisplay:10.37,2013-02-10 02:12:00,
2013-02-09 21:17:00,22.9,19.6,30.35,South,172,1.2,3.0,87,0.00,BKN,,0.00,0.0,WeatherDisplay:10.37,2013-02-10 02:17:00,
2013-02-09 21:22:00,22.9,19.9,30.35,South,172,1.8,3.5,88,0.00,BKN,,0.00,0.0,WeatherDisplay:10.37,2013-02-10 02:22:00,
2013-02-09 21:27:00,22.9,19.9,30.35,South,172,0.4,1.5,88,0.00,BKN,,0.00,0.0,WeatherDisplay:10.37,2013-02-10 02:27:00,
2013-02-09 21:32:00,22.7,19.7,30.35,South,172,0.4,1.1,88,0.00,BKN,,0.00,0.0,WeatherDisplay:10.37,2013-02-10 02:32:00,
2013-02-09 21:37:00,22.7,19.7,30.35,South,172,0.4,1.1,88,0.00,BKN,,0.00,0.0,WeatherDisplay:10.37,2013-02-10 02:37:00,
2013-02-09 21:42:00,22.5,19.7,30.35,South,172,0.1,3.5,89,0.00,BKN,,0.00,0.0,WeatherDisplay:10.37,2013-02-10 02:42:00,
2013-02-09 21:47:00,22.5,19.7,30.34,South,172,0.0,0.0,89,0.00,BKN,,0.00,0.0,WeatherDisplay:10.37,2013-02-10 02:47:00,
2013-02-09 21:52:00,22.4,19.6,30.34,South,172,0.0,1.5,89,0.00,BKN,,0.00,0.0,WeatherDisplay:10.37,2013-02-10 02:52:00,
2013-02-09 21:57:00,22.2,19.5,30.34,South,172,0.0,1.5,89,0.00,BKN,,0.00,0.0,WeatherDisplay:10.37,2013-02-10 02:57:00,
2013-02-09 22:02:00,22.1,19.4,30.34,South,172,0.0,0.0,89,0.00,FEW,,0.00,0.0,WeatherDisplay:10.37,2013-02-10 03:02:00,
2013-02-09 22:07:00,22.1,19.4,30.34,South,172,0.0,0.0,89,0.00,FEW,,0.00,0.0,WeatherDisplay:10.37,2013-02-10 03:07:00,
2013-02-09 22:12:00,21.9,19.2,30.34,South,172,0.0,0.0,89,0.00,FEW,,0.00,0.0,WeatherDisplay:10.37,2013-02-10 03:12:00,
2013-02-09 22:17:00,21.8,19.1,30.34,South,172,0.0,0.0,89,0.00,FEW,,0.00,0.0,WeatherDisplay:10.37,2013-02-10 03:17:00,
2013-02-09 22:22:00,21.6,18.9,30.34,South,172,0.0,0.0,89,0.00,FEW,,0.00,0.0,WeatherDisplay:10.37,2013-02-10 03:22:00,
2013-02-09 22:27:00,21.6,19.1,30.34,South,172,0.0,0.0,90,0.00,FEW,,0.00,0.0,WeatherDisplay:10.37,2013-02-10 03:27:00,
2013-02-09 22:32:00,21.6,19.1,30.34,South,172,0.0,0.0,90,0.00,FEW,,0.00,0.0,WeatherDisplay:10.37,2013-02-10 03:32:00,
2013-02-09 22:37:00,21.4,18.9,30.34,South,172,0.0,0.0,90,0.00,FEW,,0.00,0.0,WeatherDisplay:10.37,2013-02-10 03:37:00,
2013-02-09 22:42:00,21.1,18.6,30.34,South,172,0.0,0.0,90,0.00,FEW,,0.00,0.0,WeatherDisplay:10.37,2013-02-10 03:42:00,
2013-02-09 22:47:00,20.8,18.3,30.33,South,172,0.0,0.0,90,0.00,FEW,,0.00,0.0,WeatherDisplay:10.37,2013-02-10 03:47:00,
2013-02-09 22:52:00,20.5,18.0,30.33,South,172,0.0,0.0,90,0.00,FEW,,0.00,0.0,WeatherDisplay:10.37,2013-02-10 03:52:00,
2013-02-09 22:57:00,20.2,17.7,30.33,South,172,0.0,0.0,90,0.00,FEW,,0.00,0.0,WeatherDisplay:10.37,2013-02-10 03:57:00,
2013-02-09 23:02:00,19.9,17.4,30.33,South,172,0.0,0.0,90,0.00,CLR,,0.00,0.0,WeatherDisplay:10.37,2013-02-10 04:02:00,
2013-02-09 23:07:00,19.5,17.0,30.33,South,172,0.0,0.0,90,0.00,CLR,,0.00,0.0,WeatherDisplay:10.37,2013-02-10 04:07:00,
2013-02-09 23:12:00,19.2,16.7,30.33,South,172,0.0,0.0,90,0.00,CLR,,0.00,0.0,WeatherDisplay:10.37,2013-02-10 04:12:00,
2013-02-09 23:17:00,18.9,16.2,30.32,South,172,0.0,0.0,89,0.00,CLR,,0.00,0.0,WeatherDisplay:10.37,2013-02-10 04:17:00,
2013-02-09 23:22:00,18.6,15.9,30.32,South,172,0.0,0.0,89,0.00,CLR,,0.00,0.0,WeatherDisplay:10.37,2013-02-10 04:22:00,
2013-02-09 23:27:00,18.3,15.6,30.32,South,172,0.0,0.0,89,0.00,CLR,,0.00,0.0,WeatherDisplay:10.37,2013-02-10 04:27:00,
2013-02-09 23:32:00,18.0,15.6,30.32,South,172,0.0,0.0,90,0.00,CLR,,0.00,0.0,WeatherDisplay:10.37,2013-02-10 04:32:00,
2013-02-09 23:37:00,17.8,15.4,30.32,South,172,0.0,0.0,90,0.00,CLR,,0.00,0.0,WeatherDisplay:10.37,2013-02-10 04:37:00,
2013-02-09 23:42:00,17.7,15.0,30.32,South,172,0.0,0.0,89,0.00,CLR,,0.00,0.0,WeatherDisplay:10.37,2013-02-10 04:42:00,
2013-02-09 23:47:00,17.5,14.8,30.32,South,172,0.0,0.0,89,0.00,CLR,,0.00,0.0,WeatherDisplay:10.37,2013-02-10 04:47:00,
2013-02-09 23:52:00,17.2,14.8,30.32,South,172,0.0,0.0,90,0.00,CLR,,0.00,0.0,WeatherDisplay:10.37,2013-02-10 04:52:00,
2013-02-09 23:57:00,17.0,14.3,30.32,South,172,0.0,0.0,89,0.00,CLR,,0.00,0.0,WeatherDisplay:10.37,2013-02-10 04:57:00,